createdAt,value
2018-08-12T00:01:52.824Z,16.70
2018-08-12T00:04:27.305Z,16.70
2018-08-12T00:07:02.922Z,16.70
2018-08-12T00:09:38.974Z,16.60
2018-08-12T00:12:14.466Z,16.60
2018-08-12T00:14:50.566Z,16.60
2018-08-12T00:17:27.031Z,16.60
2018-08-12T00:20:03.590Z,16.50
2018-08-12T00:22:39.702Z,16.40
2018-08-12T00:25:16.266Z,16.40
2018-08-12T00:27:52.494Z,16.40
2018-08-12T00:30:29.350Z,16.40
2018-08-12T00:33:04.875Z,16.40
2018-08-12T00:35:41.651Z,16.40
2018-08-12T00:38:18.440Z,16.30
2018-08-12T00:40:54.267Z,16.30
2018-08-12T00:43:31.906Z,16.30
2018-08-12T00:46:07.566Z,16.30
2018-08-12T00:48:42.938Z,16.40
2018-08-12T00:51:19.270Z,16.40
2018-08-12T00:53:54.683Z,16.40
2018-08-12T00:56:30.658Z,16.40
2018-08-12T00:59:06.334Z,16.30
2018-08-12T01:01:43.115Z,16.30
2018-08-12T01:04:18.598Z,16.20
2018-08-12T01:06:53.699Z,16.30
2018-08-12T01:09:29.863Z,16.30
2018-08-12T01:12:06.598Z,16.30
2018-08-12T01:14:43.149Z,16.20
2018-08-12T01:17:18.954Z,16.20
2018-08-12T01:19:55.522Z,16.10
2018-08-12T01:22:31.814Z,16.10
2018-08-12T01:25:08.230Z,16.00
2018-08-12T01:27:44.316Z,16.00
2018-08-12T01:30:20.622Z,16.00
2018-08-12T01:32:55.441Z,16.00
2018-08-12T01:35:31.362Z,16.00
2018-08-12T01:38:06.675Z,15.90
2018-08-12T01:40:42.404Z,15.80
2018-08-12T01:43:18.431Z,15.90
2018-08-12T01:45:54.395Z,15.90
2018-08-12T01:48:29.803Z,15.90
2018-08-12T01:51:04.805Z,15.90
2018-08-12T01:53:40.314Z,15.90
2018-08-12T01:56:15.748Z,15.80
2018-08-12T01:58:51.521Z,15.80
2018-08-12T02:01:27.446Z,15.70
2018-08-12T02:04:02.831Z,15.70
2018-08-12T02:06:38.338Z,15.60
2018-08-12T02:09:14.798Z,15.50
2018-08-12T02:11:50.551Z,15.40
2018-08-12T02:14:25.314Z,15.30
2018-08-12T02:16:59.745Z,15.40
2018-08-12T02:19:36.358Z,15.40
2018-08-12T02:22:12.276Z,15.40
2018-08-12T02:24:46.810Z,15.40
2018-08-12T02:27:22.686Z,15.30
2018-08-12T02:29:58.079Z,15.30
2018-08-12T02:32:33.799Z,15.30
2018-08-12T02:35:10.591Z,15.30
2018-08-12T02:37:46.415Z,15.30
2018-08-12T02:40:21.727Z,15.30
2018-08-12T02:42:57.546Z,15.30
2018-08-12T02:45:33.335Z,15.30
2018-08-12T02:48:08.241Z,15.30
2018-08-12T02:50:44.763Z,15.30
2018-08-12T02:53:20.553Z,15.30
2018-08-12T02:55:57.298Z,15.20
2018-08-12T02:58:32.490Z,15.20
2018-08-12T03:01:06.930Z,15.20
2018-08-12T03:03:42.326Z,15.20
2018-08-12T03:06:17.591Z,15.30
2018-08-12T03:08:53.233Z,15.20
2018-08-12T03:11:28.380Z,15.20
2018-08-12T03:14:03.266Z,15.20
2018-08-12T03:16:40.699Z,15.20
2018-08-12T03:19:16.508Z,15.20
2018-08-12T03:21:51.066Z,15.10
2018-08-12T03:24:26.355Z,15.10
2018-08-12T03:27:01.315Z,15.10
2018-08-12T03:29:36.445Z,15.00
2018-08-12T03:32:12.483Z,15.00
2018-08-12T03:34:48.571Z,15.00
2018-08-12T03:37:23.783Z,15.00
2018-08-12T03:39:59.238Z,15.00
2018-08-12T03:42:34.087Z,15.10
2018-08-12T03:45:10.541Z,15.10
2018-08-12T03:47:46.158Z,15.00
2018-08-12T03:50:22.196Z,15.00
2018-08-12T03:52:58.123Z,15.00
2018-08-12T03:55:33.706Z,15.00
2018-08-12T03:58:08.498Z,15.00
2018-08-12T04:00:43.931Z,15.00
2018-08-12T04:03:19.383Z,15.00
2018-08-12T04:05:53.913Z,15.00
2018-08-12T04:08:29.487Z,15.00
2018-08-12T04:11:04.516Z,14.90
2018-08-12T04:13:41.094Z,15.00
2018-08-12T04:16:16.242Z,14.90
2018-08-12T04:18:51.065Z,15.00
2018-08-12T04:21:26.834Z,15.00
2018-08-12T04:24:03.362Z,15.00
2018-08-12T04:26:38.187Z,14.90
2018-08-12T04:29:13.702Z,15.00
2018-08-12T04:31:49.142Z,15.00
2018-08-12T04:34:25.031Z,15.10
2018-08-12T04:36:59.667Z,15.10
2018-08-12T04:39:34.475Z,15.10
2018-08-12T04:44:45.426Z,15.10
2018-08-12T04:47:21.462Z,15.20
2018-08-12T04:49:57.893Z,15.20
2018-08-12T04:52:33.640Z,15.20
2018-08-12T04:55:10.286Z,15.20
2018-08-12T04:57:46.454Z,15.30
2018-08-12T05:00:22.178Z,15.20
2018-08-12T05:02:57.971Z,15.20
2018-08-12T05:05:33.645Z,15.20
2018-08-12T05:08:09.117Z,15.30
2018-08-12T05:10:44.835Z,15.30
2018-08-12T05:13:19.870Z,15.40
2018-08-12T05:15:54.875Z,15.40
2018-08-12T05:18:29.942Z,15.50
2018-08-12T05:21:06.238Z,15.50
2018-08-12T05:23:41.138Z,15.60
2018-08-12T05:26:17.790Z,15.60
2018-08-12T05:28:53.082Z,15.70
2018-08-12T05:31:28.707Z,15.70
2018-08-12T05:34:04.762Z,15.80
2018-08-12T05:36:39.746Z,15.80
2018-08-12T05:39:15.701Z,15.80
2018-08-12T05:41:52.071Z,15.90
2018-08-12T05:44:28.613Z,16.00
2018-08-12T05:47:03.778Z,16.00
2018-08-12T05:49:39.431Z,16.20
2018-08-12T05:52:15.175Z,16.20
2018-08-12T05:54:50.549Z,16.10
2018-08-12T05:57:25.933Z,16.30
2018-08-12T06:00:01.310Z,16.20
2018-08-12T06:02:36.654Z,16.40
2018-08-12T06:05:11.862Z,16.50
2018-08-12T06:07:47.146Z,16.50
2018-08-12T06:10:23.102Z,16.70
2018-08-12T06:12:58.390Z,16.70
2018-08-12T06:15:34.845Z,16.90
2018-08-12T06:18:10.275Z,16.90
2018-08-12T06:20:45.646Z,17.00
2018-08-12T06:23:21.466Z,17.10
2018-08-12T06:25:56.731Z,17.20
2018-08-12T06:28:33.490Z,17.20
2018-08-12T06:31:08.674Z,17.30
2018-08-12T06:33:43.787Z,17.40
2018-08-12T06:36:18.760Z,17.50
2018-08-12T06:38:53.790Z,17.60
2018-08-12T06:41:29.330Z,17.60
2018-08-12T06:44:05.341Z,17.60
2018-08-12T06:46:40.642Z,17.70
2018-08-12T06:49:15.468Z,17.80
2018-08-12T06:51:50.955Z,17.70
2018-08-12T06:54:26.378Z,17.90
2018-08-12T06:57:01.484Z,17.90
2018-08-12T06:59:37.634Z,18.00
2018-08-12T07:02:13.082Z,18.20
2018-08-12T07:04:48.789Z,18.50
2018-08-12T07:07:26.250Z,18.50
2018-08-12T07:10:01.591Z,18.60
2018-08-12T07:12:36.749Z,18.70
2018-08-12T07:15:15.090Z,18.80
2018-08-12T07:17:51.447Z,18.90
2018-08-12T07:20:28.960Z,19.00
2018-08-12T07:23:06.019Z,19.20
2018-08-12T07:25:42.284Z,19.20
2018-08-12T07:28:17.839Z,19.10
2018-08-12T07:30:52.517Z,19.20
2018-08-12T07:33:28.113Z,19.20
2018-08-12T07:36:02.959Z,19.10
2018-08-12T07:38:38.476Z,19.10
2018-08-12T07:41:13.776Z,19.20
2018-08-12T07:43:48.466Z,19.20
2018-08-12T07:46:23.466Z,19.30
2018-08-12T07:48:58.991Z,19.50
2018-08-12T07:51:34.322Z,19.70
2018-08-12T07:54:11.462Z,19.70
2018-08-12T07:56:48.058Z,19.90
2018-08-12T07:59:23.418Z,19.80
2018-08-12T08:01:59.375Z,19.90
2018-08-12T08:04:34.543Z,19.90
2018-08-12T08:07:09.569Z,19.90
2018-08-12T08:09:46.278Z,20.00
2018-08-12T08:12:22.749Z,20.10
2018-08-12T08:14:58.565Z,20.30
2018-08-12T08:17:34.365Z,20.30
2018-08-12T08:20:11.311Z,20.40
2018-08-12T08:22:47.446Z,20.50
2018-08-12T08:25:24.830Z,20.70
2018-08-12T08:28:00.815Z,20.70
2018-08-12T08:30:35.937Z,20.80
2018-08-12T08:33:12.726Z,20.90
2018-08-12T08:35:49.334Z,21.10
2018-08-12T08:38:24.492Z,21.10
2018-08-12T08:41:00.982Z,21.10
2018-08-12T08:43:37.351Z,21.10
2018-08-12T08:46:12.657Z,21.20
2018-08-12T08:48:48.883Z,21.20
2018-08-12T08:51:24.068Z,21.30
2018-08-12T08:53:59.562Z,21.40
2018-08-12T08:56:34.719Z,21.40
2018-08-12T08:59:10.560Z,21.40
2018-08-12T09:01:46.457Z,21.40
2018-08-12T09:04:22.898Z,21.60
2018-08-12T09:07:00.526Z,21.80
2018-08-12T09:09:38.199Z,21.80
2018-08-12T09:12:14.386Z,22.10
2018-08-12T09:14:49.170Z,22.30
2018-08-12T09:17:26.295Z,22.40
2018-08-12T09:20:01.574Z,22.60
2018-08-12T09:22:40.301Z,22.60
2018-08-12T09:25:18.188Z,22.70
2018-08-12T09:27:54.034Z,22.90
2018-08-12T09:30:30.000Z,23.10
2018-08-12T09:33:05.844Z,23.20
2018-08-12T09:35:40.722Z,23.40
2018-08-12T09:38:16.595Z,23.40
2018-08-12T09:40:51.595Z,23.50
2018-08-12T09:43:26.565Z,23.60
2018-08-12T09:46:01.629Z,23.60
2018-08-12T09:48:37.639Z,23.60
2018-08-12T09:51:13.291Z,23.60
2018-08-12T09:53:48.674Z,23.60
2018-08-12T09:56:25.503Z,23.70
2018-08-12T09:59:00.859Z,23.80
2018-08-12T10:01:36.715Z,23.90
2018-08-12T10:04:13.650Z,23.90
2018-08-12T10:06:48.592Z,23.90
2018-08-12T10:09:24.302Z,23.90
2018-08-12T10:12:00.303Z,24.10
2018-08-12T10:14:36.108Z,24.10
2018-08-12T10:19:45.594Z,24.20
2018-08-12T10:22:20.371Z,24.20
2018-08-12T10:24:55.385Z,24.30
2018-08-12T10:27:31.599Z,24.30
2018-08-12T10:30:07.862Z,24.30
2018-08-12T10:32:44.640Z,24.30
2018-08-12T10:35:20.365Z,24.40
2018-08-12T10:37:57.302Z,24.40
2018-08-12T10:40:32.311Z,24.50
2018-08-12T10:43:08.838Z,24.50
2018-08-12T10:45:44.370Z,24.50
2018-08-12T10:48:19.246Z,24.50
2018-08-12T10:50:54.084Z,24.50
2018-08-12T10:53:29.410Z,24.50
2018-08-12T10:56:04.834Z,24.70
2018-08-12T10:58:40.410Z,24.70
2018-08-12T11:01:15.218Z,24.70
2018-08-12T11:03:51.319Z,24.80
2018-08-12T11:06:26.685Z,24.70
2018-08-12T11:09:01.825Z,24.80
2018-08-12T11:11:38.596Z,25.00
2018-08-12T11:14:13.270Z,25.00
2018-08-12T11:16:48.535Z,24.80
2018-08-12T11:19:23.914Z,24.90
2018-08-12T11:21:59.512Z,24.90
2018-08-12T11:24:35.578Z,25.00
2018-08-12T11:27:12.189Z,25.10
2018-08-12T11:29:47.830Z,25.10
2018-08-12T11:32:24.097Z,25.20
2018-08-12T11:35:02.654Z,25.30
2018-08-12T11:37:39.834Z,25.30
2018-08-12T11:40:15.990Z,25.20
2018-08-12T11:42:52.191Z,25.30
2018-08-12T11:45:27.164Z,25.50
2018-08-12T11:48:03.095Z,25.40
2018-08-12T11:50:38.519Z,25.50
2018-08-12T11:53:14.655Z,25.50
2018-08-12T11:55:50.022Z,25.50
2018-08-12T11:58:26.651Z,25.50
2018-08-12T12:01:02.084Z,25.60
2018-08-12T12:03:36.862Z,25.60
2018-08-12T12:06:13.193Z,25.60
2018-08-12T12:08:49.162Z,25.60
2018-08-12T12:11:25.657Z,25.80
2018-08-12T12:14:00.735Z,25.90
2018-08-12T12:16:38.391Z,26.00
2018-08-12T12:19:14.173Z,26.00
2018-08-12T12:21:50.411Z,25.90
2018-08-12T12:24:26.137Z,26.00
2018-08-12T12:27:01.118Z,26.00
2018-08-12T12:29:38.483Z,26.10
2018-08-12T12:32:15.382Z,26.20
2018-08-12T12:34:50.197Z,26.30
2018-08-12T12:37:24.762Z,26.40
2018-08-12T12:40:00.020Z,26.50
2018-08-12T12:42:36.836Z,26.70
2018-08-12T12:45:12.987Z,26.80
2018-08-12T12:47:49.075Z,26.80
2018-08-12T12:50:26.020Z,26.90
2018-08-12T12:53:00.844Z,27.00
2018-08-12T12:55:36.752Z,27.00
2018-08-12T12:58:11.793Z,27.00
2018-08-12T13:00:47.238Z,27.00
2018-08-12T13:03:22.878Z,27.20
2018-08-12T13:05:58.858Z,27.20
2018-08-12T13:08:34.152Z,27.20
2018-08-12T13:11:10.588Z,27.30
2018-08-12T13:13:45.467Z,27.30
2018-08-12T13:16:20.450Z,27.30
2018-08-12T13:18:55.605Z,27.40
2018-08-12T13:21:31.454Z,27.30
2018-08-12T13:24:08.106Z,27.40
2018-08-12T13:26:43.807Z,27.50
2018-08-12T13:29:20.146Z,27.30
2018-08-12T13:31:56.277Z,27.30
2018-08-12T13:34:33.502Z,27.30
2018-08-12T13:37:09.108Z,27.40
2018-08-12T13:39:44.397Z,27.50
2018-08-12T13:42:20.983Z,27.50
2018-08-12T13:44:57.226Z,27.60
2018-08-12T13:47:32.874Z,27.60
2018-08-12T13:50:14.633Z,27.70
2018-08-12T13:52:50.536Z,27.70
2018-08-12T13:55:25.286Z,27.80
2018-08-12T13:58:00.198Z,27.70
2018-08-12T14:00:36.319Z,27.80
2018-08-12T14:03:12.391Z,27.90
2018-08-12T14:05:48.047Z,27.90
2018-08-12T14:08:23.707Z,27.90
2018-08-12T14:10:59.199Z,27.90
2018-08-12T14:13:34.109Z,28.00
2018-08-12T14:16:10.251Z,27.90
2018-08-12T14:18:48.038Z,27.90
2018-08-12T14:21:24.109Z,28.00
2018-08-12T14:24:01.111Z,28.20
2018-08-12T14:26:37.355Z,28.40
2018-08-12T14:29:12.278Z,28.40
2018-08-12T14:31:47.318Z,28.40
2018-08-12T14:34:23.837Z,28.30
2018-08-12T14:36:59.340Z,28.20
2018-08-12T14:39:35.758Z,28.20
2018-08-12T14:42:11.555Z,28.30
2018-08-12T14:44:48.420Z,28.40
2018-08-12T14:47:23.545Z,28.20
2018-08-12T14:49:58.479Z,28.20
2018-08-12T14:52:34.319Z,28.20
2018-08-12T14:55:10.530Z,28.30
2018-08-12T14:57:45.417Z,28.40
2018-08-12T15:00:22.521Z,28.50
2018-08-12T15:02:57.663Z,28.70
2018-08-12T15:05:32.546Z,28.80
2018-08-12T15:08:07.490Z,28.80
2018-08-12T15:10:42.694Z,28.80
2018-08-12T15:13:17.726Z,28.80
2018-08-12T15:15:52.831Z,28.90
2018-08-12T15:18:28.423Z,29.00
2018-08-12T15:21:03.510Z,28.90
2018-08-12T15:23:39.049Z,28.80
2018-08-12T15:26:15.027Z,28.80
2018-08-12T15:28:50.060Z,28.90
2018-08-12T15:31:25.592Z,29.00
2018-08-12T15:34:01.266Z,29.10
2018-08-12T15:36:36.092Z,29.30
2018-08-12T15:39:13.102Z,29.30
2018-08-12T15:41:48.339Z,29.50
2018-08-12T15:44:23.514Z,29.50
2018-08-12T15:46:59.458Z,29.50
2018-08-12T15:49:35.913Z,29.50
2018-08-12T15:52:11.519Z,29.60
2018-08-12T15:54:46.831Z,29.70
2018-08-12T15:57:24.347Z,29.80
2018-08-12T15:59:59.329Z,29.80
2018-08-12T16:02:34.201Z,30.10
2018-08-12T16:05:10.303Z,30.00
2018-08-12T16:07:47.462Z,29.90
2018-08-12T16:10:24.209Z,30.00
2018-08-12T16:13:00.338Z,30.10
2018-08-12T16:15:35.769Z,30.20
2018-08-12T16:18:11.246Z,30.20
2018-08-12T16:20:46.342Z,30.20
2018-08-12T16:23:21.211Z,30.20
2018-08-12T16:25:56.460Z,30.20
2018-08-12T16:28:32.886Z,30.20
2018-08-12T16:31:08.232Z,30.20
2018-08-12T16:33:44.386Z,30.20
2018-08-12T16:36:20.369Z,30.20
2018-08-12T16:38:55.570Z,30.10
2018-08-12T16:41:30.370Z,30.00
2018-08-12T16:44:06.514Z,29.90
2018-08-12T16:46:42.354Z,29.90
2018-08-12T16:49:18.634Z,29.80
2018-08-12T16:51:54.626Z,29.80
2018-08-12T16:54:29.666Z,29.60
2018-08-12T16:57:05.099Z,29.40
2018-08-12T16:59:41.153Z,29.20
2018-08-12T17:02:17.741Z,28.90
2018-08-12T17:07:30.790Z,28.60
2018-08-12T17:10:07.406Z,28.40
2018-08-12T17:12:45.032Z,28.20
2018-08-12T17:15:21.266Z,28.10
2018-08-12T17:17:57.230Z,27.80
2018-08-12T17:20:32.266Z,27.80
2018-08-12T17:23:08.975Z,27.70
2018-08-12T17:25:44.054Z,27.60
2018-08-12T17:28:20.044Z,27.40
2018-08-12T17:30:56.842Z,27.30
2018-08-12T17:33:32.925Z,27.20
2018-08-12T17:36:07.683Z,27.10
2018-08-12T17:38:43.766Z,27.10
2018-08-12T17:41:19.372Z,27.00
2018-08-12T17:43:54.272Z,26.90
2018-08-12T17:46:29.775Z,26.90
2018-08-12T17:49:06.027Z,26.80
2018-08-12T17:51:42.830Z,26.80
2018-08-12T17:54:20.498Z,26.70
2018-08-12T17:56:55.566Z,26.60
2018-08-12T17:59:31.726Z,26.60
2018-08-12T18:02:06.189Z,26.50
2018-08-12T18:04:42.186Z,26.40
2018-08-12T18:07:17.206Z,26.30
2018-08-12T18:09:52.730Z,26.20
2018-08-12T18:12:28.173Z,26.20
2018-08-12T18:15:03.374Z,26.10
2018-08-12T18:17:40.236Z,26.10
2018-08-12T18:20:16.063Z,25.90
2018-08-12T18:22:51.777Z,25.90
2018-08-12T18:25:28.230Z,25.90
2018-08-12T18:28:04.002Z,25.80
2018-08-12T18:30:40.162Z,25.60
2018-08-12T18:33:16.163Z,25.60
2018-08-12T18:35:50.855Z,25.60
2018-08-12T18:38:27.162Z,25.50
2018-08-12T18:41:03.245Z,25.40
2018-08-12T18:43:40.461Z,25.40
2018-08-12T18:46:18.051Z,25.30
2018-08-12T18:48:53.942Z,25.20
2018-08-12T18:51:29.174Z,25.20
2018-08-12T18:54:05.567Z,25.10
2018-08-12T18:56:40.509Z,25.00
2018-08-12T18:59:15.815Z,25.00
2018-08-12T19:01:51.171Z,24.90
2018-08-12T19:04:28.043Z,24.80
2018-08-12T19:07:03.406Z,24.80
2018-08-12T19:09:38.867Z,24.70
2018-08-12T19:12:14.665Z,24.70
2018-08-12T19:14:50.239Z,24.50
2018-08-12T19:17:26.338Z,24.50
2018-08-12T19:20:01.342Z,24.50
2018-08-12T19:22:36.651Z,24.40
2018-08-12T19:25:13.602Z,24.30
2018-08-12T19:27:49.114Z,24.30
2018-08-12T19:30:24.102Z,24.10
2018-08-12T19:32:59.235Z,24.00
2018-08-12T19:35:33.926Z,24.00
2018-08-12T19:38:08.618Z,24.00
2018-08-12T19:40:43.378Z,23.90
2018-08-12T19:43:18.579Z,23.80
2018-08-12T19:45:55.067Z,23.70
2018-08-12T19:48:32.715Z,23.70
2018-08-12T19:51:08.455Z,23.70
2018-08-12T19:53:43.674Z,23.50
2018-08-12T19:56:19.974Z,23.50
2018-08-12T19:58:56.843Z,23.50
2018-08-12T20:01:32.206Z,23.40
2018-08-12T20:04:08.900Z,23.40
2018-08-12T20:06:44.943Z,23.30
2018-08-12T20:09:20.689Z,23.20
2018-08-12T20:11:56.021Z,23.10
2018-08-12T20:14:31.006Z,23.00
2018-08-12T20:17:06.963Z,23.00
2018-08-12T20:19:42.919Z,23.00
2018-08-12T20:22:17.807Z,22.90
2018-08-12T20:27:28.381Z,22.80
2018-08-12T20:30:04.058Z,22.80
2018-08-12T20:32:39.202Z,22.70
2018-08-12T20:35:15.182Z,22.60
2018-08-12T20:37:51.578Z,22.50
2018-08-12T20:40:29.310Z,22.50
2018-08-12T20:43:04.817Z,22.50
2018-08-12T20:45:40.975Z,22.40
2018-08-12T20:48:18.234Z,22.40
2018-08-12T20:50:54.806Z,22.40
2018-08-12T20:53:30.307Z,22.20
2018-08-12T20:56:05.464Z,22.20
2018-08-12T21:01:17.582Z,22.10
2018-08-12T21:03:53.397Z,22.00
2018-08-12T21:06:29.261Z,21.90
2018-08-12T21:09:04.979Z,21.90
2018-08-12T21:14:14.066Z,21.80
2018-08-12T21:16:50.375Z,21.70
2018-08-12T21:19:25.529Z,21.70
2018-08-12T21:22:00.534Z,21.70
2018-08-12T21:24:36.286Z,21.70
2018-08-12T21:27:11.690Z,21.60
2018-08-12T21:29:47.069Z,21.60
2018-08-12T21:32:22.218Z,21.60
2018-08-12T21:34:57.276Z,21.60
2018-08-12T21:37:32.215Z,21.50
2018-08-12T21:40:07.314Z,21.50
2018-08-12T21:42:42.058Z,21.40
2018-08-12T21:45:18.207Z,21.40
2018-08-12T21:47:53.483Z,21.40
2018-08-12T21:50:29.638Z,21.30
2018-08-12T21:53:05.982Z,21.30
2018-08-12T21:55:40.662Z,21.30
2018-08-12T21:58:15.807Z,21.30
2018-08-12T22:00:52.191Z,21.20
2018-08-12T22:03:27.344Z,21.10
2018-08-12T22:06:02.486Z,21.10
2018-08-12T22:08:37.034Z,21.10
2018-08-12T22:11:12.291Z,21.10
2018-08-12T22:13:49.018Z,21.00
2018-08-12T22:16:24.264Z,20.90
2018-08-12T22:19:00.032Z,21.00
2018-08-12T22:21:35.591Z,20.80
2018-08-12T22:24:11.887Z,20.90
2018-08-12T22:26:47.003Z,20.80
2018-08-12T22:29:22.935Z,20.70
2018-08-12T22:31:59.550Z,20.70
2018-08-12T22:34:34.462Z,20.70
2018-08-12T22:37:10.898Z,20.70
2018-08-12T22:39:46.266Z,20.60
2018-08-12T22:42:21.073Z,20.60
2018-08-12T22:44:56.985Z,20.60
2018-08-12T22:47:33.093Z,20.50
2018-08-12T22:50:09.166Z,20.50
2018-08-12T22:52:44.826Z,20.50
2018-08-12T22:55:20.167Z,20.40
2018-08-12T22:57:55.257Z,20.40
2018-08-12T23:00:30.530Z,20.30
2018-08-12T23:03:08.335Z,20.30
2018-08-12T23:05:43.952Z,20.30
2018-08-12T23:08:19.937Z,20.30
2018-08-12T23:10:56.157Z,20.30
2018-08-12T23:13:32.181Z,20.30
2018-08-12T23:16:20.459Z,20.20
2018-08-12T23:18:57.090Z,20.30
2018-08-12T23:21:32.938Z,20.30
2018-08-12T23:24:08.218Z,20.20
2018-08-12T23:26:43.287Z,20.20
2018-08-12T23:29:19.506Z,20.20
2018-08-12T23:31:54.747Z,20.10
2018-08-12T23:34:29.414Z,20.20
2018-08-12T23:37:05.443Z,20.20
2018-08-12T23:39:40.110Z,22.30
2018-08-12T23:42:16.065Z,20.10
2018-08-12T23:44:52.870Z,20.10
2018-08-12T23:47:29.018Z,20.10
2018-08-12T23:50:04.502Z,20.10
2018-08-12T23:52:39.882Z,20.10
2018-08-12T23:55:16.226Z,20.10
2018-08-12T23:57:52.182Z,20.10
